The Cedars, Virginia
Current Conditions -  °F | °C
As of 6:15 PM on Saturday 25 Oct 2014 (Local Time) from KMKJ Reporting Station
Overcast Overcast  
Wind Chill: 62°   Ceiling: 3500
Heat Index: 62°   Visibility: 10mi
Dew Point: 47°   Wind: 13mph
Humidity: 59%   Direction: 240°WSW
Pressure: 30"   Gusts: NA
Location:  36.8339°N, 81.5195°W
Report Text: KMKJ 252215Z AUTO 24011KT 10SM OVC035 17/09 A3000 RMK AO2 T01650085
Loading
Personal Weather Stations






























Interactive Weather Map
Tropical Storm Tracking
New forecast layout! Learn more

10-Day Weather Forecast

Advertisements
Track Severe Weather on mobile